Wind From: 11-12-2017 06:00 Until: 12-12-2017 06:00 warning for: Wind Level: Orange info button

Power and phone distribution networks may be disrupted for relatively long periods., Roofs and chimneys can be damaged. , Tree branches may break. , Vehicles can be deported. , Traffic may be disrupted, particularly on secondary roads in forest areas. Limit your trips. , Limit your speed in highway driving, especially if you drive a vehicle or hitch sensitive to wind. , Do not go for walks in forests or along the coast., In town, be vigilant against possible falling objects., Do not work on roofs and do not touch any electrical line fallen on the ground., Store or secure sensitive objects to wind or likely to be damaged., Always install power generators outside buildings. 


Meteo18 Weather Cam more information Meteo18 Weather Cam


Thunder radar more information blitzortung!


Rain radar more information rain snow radar


Visit our other weather sites:

Template documentation
and downloads

And another site



Weather Underground History page Text

Daily Summary for September 15, 2016 Units:  Metric    English   Both
« Previous Day
Next Day »
Daily Weekly Monthly Yearly Custom
  High: Low: Average:
Temperature: 21.6 °C 12.9 °C 16.4 °C
Dew Point: 16.7 °C 12.0 °C 14.2 °C
Humidity: 97 % 60 % 87 %
Wind Speed: 17.7 km/h 0.0 km/h 4.4 km/h
Wind Gust: 25.7 km/h - -
Wind:- - SSW
Pressure: 1014.1 hPa 1008.4 hPa -
Precipitation: 1.3 mm    
Historical Graphs
 
 
Tabular Data for September 15, 2016
Time Temperature Dew Point Pressure Wind Wind Speed Wind Gust Humidity Rainfall Rate (Hourly)
00:02 17.5 °C 16.4 °C 1009.0 hPa ENE 8.0 km/h 12.9 km/h 93 % 1.3 mm
00:07 17.5 °C 16.5 °C 1009.0 hPa ENE 9.7 km/h 14.5 km/h 94 % 1.0 mm
00:12 17.6 °C 16.6 °C 1008.7 hPa NE 6.4 km/h 17.7 km/h 94 % 1.3 mm
00:17 17.6 °C 16.6 °C 1008.7 hPa ENE 9.7 km/h 17.7 km/h 94 % 1.0 mm
00:22 17.7 °C 16.7 °C 1008.7 hPa ENE 11.3 km/h 20.9 km/h 94 % 1.0 mm
00:27 17.7 °C 16.6 °C 1008.7 hPa ENE 9.7 km/h 20.9 km/h 93 % 0.8 mm
00:32 17.7 °C 16.6 °C 1008.7 hPa ENE 9.7 km/h 22.5 km/h 93 % 0.8 mm
00:42 17.8 °C 16.7 °C 1008.7 hPa ENE 14.5 km/h 20.9 km/h 93 % 0.8 mm
00:47 17.8 °C 16.7 °C 1008.7 hPa ENE 12.9 km/h 20.9 km/h 93 % 0.5 mm
00:52 17.8 °C 16.5 °C 1008.7 hPa ENE 14.5 km/h 20.9 km/h 92 % 0.5 mm
00:57 17.8 °C 16.5 °C 1008.7 hPa ENE 11.3 km/h 22.5 km/h 92 % 0.5 mm
01:02 17.8 °C 16.3 °C 1008.4 hPa ENE 8.0 km/h 22.5 km/h 91 % 0.3 mm
01:07 17.8 °C 16.5 °C 1008.7 hPa East 4.8 km/h 17.7 km/h 92 % 0.0 mm
01:12 17.7 °C 16.4 °C 1008.7 hPa East 1.6 km/h 14.5 km/h 92 % 0.0 mm
01:17 17.7 °C 16.4 °C 1008.7 hPa ESE 1.6 km/h 9.7 km/h 92 % 0.0 mm
01:22 17.6 °C 16.5 °C 1008.7 hPa NE 1.6 km/h 8.0 km/h 93 % 0.0 mm
01:32 17.5 °C 16.4 °C 1008.7 hPa ESE 1.6 km/h 3.2 km/h 93 % 0.0 mm
01:37 17.5 °C 16.4 °C 1009.0 hPa ESE 1.6 km/h 3.2 km/h 93 % 0.0 mm
01:42 17.5 °C 16.4 °C 1009.0 hPa Calm   3.2 km/h 93 % 0.0 mm
01:47 17.4 °C 16.3 °C 1009.4 hPa SSW 1.6 km/h 3.2 km/h 93 % 0.0 mm
01:52 17.4 °C 16.4 °C 1009.4 hPa SSW 4.8 km/h 4.8 km/h 94 % 0.0 mm
01:57 17.4 °C 16.4 °C 1009.4 hPa SSW 1.6 km/h 8.0 km/h 94 % 0.0 mm
02:12 17.3 °C 16.3 °C 1009.4 hPa South 6.4 km/h 14.5 km/h 94 % 0.0 mm
02:17 17.2 °C 16.2 °C 1009.4 hPa South 6.4 km/h 14.5 km/h 94 % 0.0 mm
02:22 17.1 °C 16.1 °C 1009.4 hPa SW 6.4 km/h 14.5 km/h 94 % 0.3 mm
02:32 16.9 °C 15.9 °C 1009.4 hPa SW 1.6 km/h 14.5 km/h 94 % 0.5 mm
02:37 16.9 °C 15.9 °C 1009.0 hPa Calm   9.7 km/h 94 % 0.5 mm
02:42 16.8 °C 16.0 °C 1009.4 hPa Calm   6.4 km/h 95 % 0.5 mm
02:52 16.8 °C 16.0 °C 1009.0 hPa SE 1.6 km/h 4.8 km/h 95 % 0.5 mm
02:57 16.7 °C 15.9 °C 1009.4 hPa SSW 4.8 km/h 4.8 km/h 95 % 0.8 mm
03:02 16.7 °C 15.9 °C 1009.4 hPa South 1.6 km/h 11.3 km/h 95 % 0.8 mm
03:07 16.7 °C 15.9 °C 1009.0 hPa SSW 3.2 km/h 11.3 km/h 95 % 0.8 mm
03:12 16.6 °C 15.8 °C 1009.0 hPa Calm   11.3 km/h 95 % 0.8 mm
03:17 16.6 °C 15.8 °C 1009.0 hPa Calm   6.4 km/h 95 % 0.5 mm
03:22 16.6 °C 15.8 °C 1008.7 hPa Calm   6.4 km/h 95 % 0.5 mm
03:27 16.6 °C 15.8 °C 1008.7 hPa Calm   4.8 km/h 95 % 0.5 mm
03:32 16.6 °C 15.8 °C 1009.0 hPa Calm   4.8 km/h 95 % 0.5 mm
03:37 16.6 °C 15.8 °C 1008.7 hPa Calm   1.6 km/h 95 % 0.5 mm
03:42 16.6 °C 15.8 °C 1008.7 hPa Calm     95 % 0.3 mm
03:52 16.4 °C 15.6 °C 1008.7 hPa SE 1.6 km/h 1.6 km/h 95 % 0.3 mm
03:57 16.4 °C 15.8 °C 1008.4 hPa South 1.6 km/h 4.8 km/h 96 % 0.0 mm
04:02 16.4 °C 15.6 °C 1008.7 hPa South 1.6 km/h 4.8 km/h 95 % 0.0 mm
04:07 16.4 °C 15.6 °C 1008.7 hPa SSW 3.2 km/h 4.8 km/h 95 % 0.0 mm
04:12 16.5 °C 15.9 °C 1009.0 hPa SW 4.8 km/h 6.4 km/h 96 % 0.0 mm
04:17 16.5 °C 15.9 °C 1009.0 hPa SSW 4.8 km/h 6.4 km/h 96 % 0.0 mm
04:22 16.4 °C 15.8 °C 1009.0 hPa South 1.6 km/h 9.7 km/h 96 % 0.0 mm
04:27 16.4 °C 15.8 °C 1009.0 hPa SW 8.0 km/h 11.3 km/h 96 % 0.0 mm
04:32 16.3 °C 15.5 °C 1009.0 hPa SSW 4.8 km/h 12.9 km/h 95 % 0.0 mm
04:37 16.2 °C 15.6 °C 1009.0 hPa SW 6.4 km/h 12.9 km/h 96 % 0.0 mm
04:42 16.1 °C 15.5 °C 1008.7 hPa SSW 8.0 km/h 14.5 km/h 96 % 0.0 mm
04:47 16.1 °C 15.5 °C 1008.4 hPa SW 4.8 km/h 14.5 km/h 96 % 0.0 mm
04:52 16.0 °C 15.4 °C 1008.7 hPa SW 3.2 km/h 14.5 km/h 96 % 0.0 mm
04:57 16.0 °C 15.4 °C 1008.7 hPa SW 1.6 km/h 12.9 km/h 96 % 0.0 mm
05:02 16.0 °C 15.4 °C 1008.7 hPa SW 6.4 km/h 11.3 km/h 96 % 0.0 mm
05:12 15.9 °C 15.3 °C 1008.7 hPa SSW 9.7 km/h 14.5 km/h 96 % 0.0 mm
05:17 15.9 °C 15.3 °C 1008.7 hPa SSW 4.8 km/h 14.5 km/h 96 % 0.0 mm
05:22 15.9 °C 15.3 °C 1008.7 hPa South 3.2 km/h 14.5 km/h 96 % 0.0 mm
05:27 15.9 °C 15.3 °C 1008.7 hPa ESE 3.2 km/h 12.9 km/h 96 % 0.0 mm
05:32 15.9 °C 15.3 °C 1008.7 hPa South 1.6 km/h 9.7 km/h 96 % 0.0 mm
05:37 15.8 °C 15.2 °C 1008.7 hPa South 1.6 km/h 9.7 km/h 96 % 0.0 mm
05:42 15.8 °C 15.2 °C 1008.7 hPa SW 1.6 km/h 8.0 km/h 96 % 0.0 mm
05:47 15.8 °C 15.2 °C 1008.7 hPa South 3.2 km/h 8.0 km/h 96 % 0.0 mm
05:52 15.8 °C 15.3 °C 1008.7 hPa SW 4.8 km/h 9.7 km/h 97 % 0.0 mm
05:57 15.8 °C 15.3 °C 1008.7 hPa SSW 6.4 km/h 9.7 km/h 97 % 0.0 mm
06:02 15.8 °C 15.3 °C 1009.0 hPa SSW 8.0 km/h 9.7 km/h 97 % 0.0 mm
06:12 15.7 °C 15.2 °C 1008.7 hPa SW 14.5 km/h 14.5 km/h 97 % 0.0 mm
06:17 15.6 °C 15.0 °C 1009.0 hPa SW 8.0 km/h 14.5 km/h 96 % 0.0 mm
06:22 15.4 °C 14.8 °C 1009.0 hPa West 1.6 km/h 16.1 km/h 96 % 0.0 mm
06:27 15.4 °C 14.8 °C 1009.0 hPa SW 9.7 km/h 16.1 km/h 96 % 0.0 mm
06:32 15.3 °C 14.7 °C 1009.0 hPa West 6.4 km/h 16.1 km/h 96 % 0.0 mm
06:37 15.3 °C 14.7 °C 1009.0 hPa SW 6.4 km/h 16.1 km/h 96 % 0.0 mm
06:47 15.2 °C 14.6 °C 1009.0 hPa West 6.4 km/h 16.1 km/h 96 % 0.0 mm
06:52 15.2 °C 14.7 °C 1009.0 hPa SW 1.6 km/h 12.9 km/h 97 % 0.0 mm
06:57 15.2 °C 14.7 °C 1009.4 hPa West 6.4 km/h 12.9 km/h 97 % 0.0 mm
07:02 15.1 °C 14.6 °C 1009.4 hPa SSW 6.4 km/h 11.3 km/h 97 % 0.0 mm
07:12 15.1 °C 14.6 °C 1009.4 hPa SW 3.2 km/h 11.3 km/h 97 % 0.0 mm
07:17 15.1 °C 14.6 °C 1009.4 hPa SW 6.4 km/h 9.7 km/h 97 % 0.3 mm
07:32 15.2 °C 14.7 °C 1009.4 hPa SW 3.2 km/h 9.7 km/h 97 % 0.3 mm
07:42 15.3 °C 14.8 °C 1009.7 hPa SSW 1.6 km/h 9.7 km/h 97 % 0.3 mm
07:47 15.3 °C 14.8 °C 1009.7 hPa South 8.0 km/h 9.7 km/h 97 % 0.3 mm
07:52 15.3 °C 14.8 °C 1009.7 hPa SW 3.2 km/h 8.0 km/h 97 % 0.3 mm
07:57 15.3 °C 14.8 °C 1010.0 hPa SSW 4.8 km/h 8.0 km/h 97 % 0.3 mm
08:02 15.3 °C 14.8 °C 1010.0 hPa SSW 3.2 km/h 8.0 km/h 97 % 0.3 mm
08:12 15.3 °C 14.8 °C 1009.7 hPa SSW 4.8 km/h 8.0 km/h 97 % 0.3 mm
08:17 15.3 °C 14.8 °C 1009.7 hPa SSW 6.4 km/h 6.4 km/h 97 % 0.0 mm
08:22 15.2 °C 14.7 °C 1009.7 hPa SW 6.4 km/h 14.5 km/h 97 % 0.0 mm
08:27 15.1 °C 14.6 °C 1009.7 hPa SW 6.4 km/h 14.5 km/h 97 % 0.0 mm
08:32 15.1 °C 14.6 °C 1010.0 hPa South 6.4 km/h 14.5 km/h 97 % 0.0 mm
08:37 15.0 °C 14.5 °C 1009.7 hPa SW 6.4 km/h 16.1 km/h 97 % 0.0 mm
08:42 15.0 °C 14.5 °C 1010.0 hPa WSW 8.0 km/h 16.1 km/h 97 % 0.0 mm
08:47 15.0 °C 14.5 °C 1010.0 hPa SSW 14.5 km/h 16.1 km/h 97 % 0.0 mm
08:52 14.9 °C 14.3 °C 1010.0 hPa SW 9.7 km/h 17.7 km/h 96 % 0.0 mm
09:02 14.4 °C 13.8 °C 1010.0 hPa SW 9.7 km/h 25.7 km/h 96 % 0.0 mm
09:12 14.1 °C 13.5 °C 1010.4 hPa SW 11.3 km/h 25.7 km/h 96 % 0.0 mm
09:17 14.1 °C 13.5 °C 1010.4 hPa WSW 12.9 km/h 20.9 km/h 96 % 0.0 mm
09:22 14.1 °C 13.5 °C 1010.4 hPa SSW 8.0 km/h 20.9 km/h 96 % 0.0 mm
09:32 14.2 °C 13.6 °C 1010.4 hPa SW 11.3 km/h 20.9 km/h 96 % 0.0 mm
09:42 14.2 °C 13.6 °C 1010.4 hPa SSW 12.9 km/h 20.9 km/h 96 % 0.0 mm
09:47 14.2 °C 13.6 °C 1010.4 hPa SSW 4.8 km/h 19.3 km/h 96 % 0.0 mm
09:52 14.2 °C 13.6 °C 1010.4 hPa WSW 9.7 km/h 20.9 km/h 96 % 0.0 mm
09:57 14.2 °C 13.4 °C 1010.7 hPa WSW 8.0 km/h 20.9 km/h 95 % 0.0 mm
10:02 14.2 °C 13.4 °C 1010.7 hPa SSW 3.2 km/h 20.9 km/h 95 % 0.0 mm
10:12 14.3 °C 13.5 °C 1010.7 hPa WSW 9.7 km/h 24.1 km/h 95 % 0.0 mm
10:17 14.4 °C 13.6 °C 1010.7 hPa SW 12.9 km/h 24.1 km/h 95 % 0.0 mm
10:22 14.4 °C 13.6 °C 1010.7 hPa SW 6.4 km/h 20.9 km/h 95 % 0.0 mm
10:32 14.5 °C 13.7 °C 1010.7 hPa SSW 1.6 km/h 19.3 km/h 95 % 0.0 mm
10:42 14.7 °C 13.7 °C 1011.1 hPa SSW 17.7 km/h 19.3 km/h 94 % 0.0 mm
10:47 14.7 °C 13.7 °C 1011.1 hPa SSE 6.4 km/h 20.9 km/h 94 % 0.0 mm
10:52 14.7 °C 13.7 °C 1011.1 hPa WSW 11.3 km/h 20.9 km/h 94 % 0.0 mm
11:02 14.7 °C 13.7 °C 1011.4 hPa SSW 8.0 km/h 20.9 km/h 94 % 0.0 mm
11:12 15.0 °C 14.0 °C 1011.4 hPa SSW 8.0 km/h 20.9 km/h 94 % 0.0 mm
11:22 15.0 °C 13.7 °C 1011.7 hPa WSW 12.9 km/h 17.7 km/h 92 % 0.0 mm
11:32 15.0 °C 13.7 °C 1011.7 hPa WSW 11.3 km/h 17.7 km/h 92 % 0.0 mm
11:37 15.1 °C 13.8 °C 1011.7 hPa WSW 6.4 km/h 17.7 km/h 92 % 0.0 mm
11:47 15.3 °C 13.8 °C 1011.7 hPa WSW 8.0 km/h 16.1 km/h 91 % 0.0 mm
11:52 15.4 °C 13.8 °C 1011.7 hPa West 8.0 km/h 19.3 km/h 90 % 0.0 mm
11:57 15.5 °C 14.0 °C 1011.7 hPa SW 9.7 km/h 19.3 km/h 91 % 0.0 mm
12:02 15.7 °C 14.2 °C 1011.4 hPa WSW 14.5 km/h 17.7 km/h 91 % 0.0 mm
12:07 15.9 °C 14.3 °C 1011.4 hPa WSW 6.4 km/h 17.7 km/h 90 % 0.0 mm
12:12 16.0 °C 14.2 °C 1011.4 hPa WSW 9.7 km/h 17.7 km/h 89 % 0.0 mm
12:17 16.2 °C 14.6 °C 1011.7 hPa WSW 8.0 km/h 17.7 km/h 90 % 0.0 mm
12:22 16.1 °C 14.1 °C 1011.7 hPa West 8.0 km/h 16.1 km/h 88 % 0.0 mm
12:27 15.9 °C 13.6 °C 1011.7 hPa WSW 4.8 km/h 17.7 km/h 86 % 0.0 mm
12:32 15.9 °C 13.7 °C 1011.7 hPa WSW 6.4 km/h 17.7 km/h 87 % 0.0 mm
12:37 16.2 °C 14.2 °C 1012.1 hPa SW 6.4 km/h 17.7 km/h 88 % 0.0 mm
12:42 16.3 °C 13.8 °C 1012.1 hPa WNW 4.8 km/h 17.7 km/h 85 % 0.0 mm
12:52 16.3 °C 14.0 °C 1012.1 hPa SSW 6.4 km/h 19.3 km/h 86 % 0.0 mm
12:57 16.3 °C 14.0 °C 1012.1 hPa SW 8.0 km/h 19.3 km/h 86 % 0.0 mm
13:02 16.4 °C 13.9 °C 1012.1 hPa WSW 12.9 km/h 17.7 km/h 85 % 0.0 mm
13:07 16.3 °C 13.6 °C 1012.1 hPa SSW 3.2 km/h 19.3 km/h 84 % 0.0 mm
13:12 16.5 °C 14.0 °C 1012.1 hPa SW 9.7 km/h 19.3 km/h 85 % 0.0 mm
13:17 16.7 °C 14.2 °C 1012.1 hPa West 1.6 km/h 19.3 km/h 85 % 0.0 mm
13:22 16.6 °C 13.9 °C 1012.1 hPa WSW 8.0 km/h 16.1 km/h 84 % 0.0 mm
13:27 16.4 °C 13.5 °C 1012.1 hPa SW 6.4 km/h 16.1 km/h 83 % 0.0 mm
13:32 16.4 °C 13.7 °C 1012.1 hPa SSW 6.4 km/h 16.1 km/h 84 % 0.0 mm
13:37 16.5 °C 13.8 °C 1012.4 hPa WSW 1.6 km/h 16.1 km/h 84 % 0.0 mm
13:42 16.5 °C 13.6 °C 1012.1 hPa SW 11.3 km/h 16.1 km/h 83 % 0.0 mm
13:52 16.3 °C 13.8 °C 1012.1 hPa SW 11.3 km/h 14.5 km/h 85 % 0.0 mm
14:02 16.2 °C 13.9 °C 1012.4 hPa South 6.4 km/h 16.1 km/h 86 % 0.0 mm
14:12 16.5 °C 13.8 °C 1012.4 hPa South 9.7 km/h 12.9 km/h 84 % 0.0 mm
14:17 16.7 °C 13.8 °C 1012.4 hPa SSW 6.4 km/h 16.1 km/h 83 % 0.0 mm
14:22 16.7 °C 13.8 °C 1012.4 hPa West 4.8 km/h 16.1 km/h 83 % 0.0 mm
14:32 16.8 °C 14.1 °C 1012.4 hPa SSW 3.2 km/h 14.5 km/h 84 % 0.0 mm
14:37 16.7 °C 14.0 °C 1012.4 hPa SW 9.7 km/h 14.5 km/h 84 % 0.0 mm
14:42 16.6 °C 14.1 °C 1012.4 hPa SSW 3.2 km/h 14.5 km/h 85 % 0.0 mm
14:47 16.6 °C 14.1 °C 1012.4 hPa SW 4.8 km/h 14.5 km/h 85 % 0.0 mm
14:52 16.6 °C 13.9 °C 1012.4 hPa SW 6.4 km/h 12.9 km/h 84 % 0.0 mm
15:02 17.2 °C 14.1 °C 1012.4 hPa Calm   11.3 km/h 82 % 0.0 mm
15:12 17.7 °C 13.6 °C 1012.1 hPa WNW 4.8 km/h 11.3 km/h 77 % 0.0 mm
15:17 17.7 °C 13.6 °C 1012.1 hPa WSW 1.6 km/h 11.3 km/h 77 % 0.0 mm
15:22 17.9 °C 13.8 °C 1012.1 hPa Calm   11.3 km/h 77 % 0.0 mm
15:27 18.1 °C 14.0 °C 1012.1 hPa SW 3.2 km/h 6.4 km/h 77 % 0.0 mm
15:32 18.3 °C 13.6 °C 1012.1 hPa South 4.8 km/h 9.7 km/h 74 % 0.0 mm
15:37 18.4 °C 13.9 °C 1012.1 hPa SSW 3.2 km/h 9.7 km/h 75 % 0.0 mm
15:42 18.4 °C 13.7 °C 1012.1 hPa SSW 6.4 km/h 9.7 km/h 74 % 0.0 mm
15:47 18.3 °C 13.6 °C 1012.1 hPa Calm   9.7 km/h 74 % 0.0 mm
15:52 18.7 °C 13.8 °C 1012.1 hPa SSW 3.2 km/h 9.7 km/h 73 % 0.0 mm
15:57 18.6 °C 13.7 °C 1011.7 hPa WSW 4.8 km/h 9.7 km/h 73 % 0.0 mm
16:02 18.5 °C 13.6 °C 1012.1 hPa West 3.2 km/h 8.0 km/h 73 % 0.0 mm
16:12 18.8 °C 13.4 °C 1011.7 hPa Calm   8.0 km/h 71 % 0.0 mm
16:17 18.9 °C 13.3 °C 1011.7 hPa SW 1.6 km/h 8.0 km/h 70 % 0.0 mm
16:22 18.8 °C 13.0 °C 1011.7 hPa SSW 8.0 km/h 8.0 km/h 69 % 0.0 mm
16:32 18.8 °C 13.4 °C 1011.7 hPa Calm   11.3 km/h 71 % 0.0 mm
16:37 18.7 °C 12.9 °C 1011.7 hPa Calm   11.3 km/h 69 % 0.0 mm
16:42 18.7 °C 12.9 °C 1011.7 hPa West 1.6 km/h 9.7 km/h 69 % 0.0 mm
16:47 18.8 °C 13.0 °C 1011.7 hPa SSE 1.6 km/h 9.7 km/h 69 % 0.0 mm
16:52 18.9 °C 12.9 °C 1012.1 hPa SW 8.0 km/h 11.3 km/h 68 % 0.0 mm
16:57 19.2 °C 13.1 °C 1011.7 hPa SSE 9.7 km/h 11.3 km/h 68 % 0.0 mm
17:02 19.1 °C 12.8 °C 1012.1 hPa SW 3.2 km/h 16.1 km/h 67 % 0.0 mm
17:07 18.9 °C 12.6 °C 1012.1 hPa South 1.6 km/h 16.1 km/h 67 % 0.0 mm
17:12 18.9 °C 12.9 °C 1011.7 hPa SSW 6.4 km/h 16.1 km/h 68 % 0.0 mm
17:17 18.8 °C 13.0 °C 1011.7 hPa Calm   9.7 km/h 69 % 0.0 mm
17:22 18.8 °C 12.8 °C 1011.7 hPa SW 4.8 km/h 9.7 km/h 68 % 0.0 mm
17:32 18.8 °C 12.5 °C 1011.7 hPa WSW 1.6 km/h 9.7 km/h 67 % 0.0 mm
17:42 19.1 °C 13.3 °C 1011.7 hPa SSW 4.8 km/h 8.0 km/h 69 % 0.0 mm
17:47 19.0 °C 13.0 °C 1011.7 hPa South 1.6 km/h 8.0 km/h 68 % 0.0 mm
17:52 19.2 °C 13.1 °C 1012.1 hPa SW 1.6 km/h 8.0 km/h 68 % 0.0 mm
17:57 19.6 °C 13.1 °C 1011.7 hPa SW 3.2 km/h 8.0 km/h 66 % 0.0 mm
18:02 19.6 °C 13.1 °C 1011.7 hPa SSW 3.2 km/h 8.0 km/h 66 % 0.0 mm
18:12 19.6 °C 13.5 °C 1011.7 hPa West 6.4 km/h 8.0 km/h 68 % 0.0 mm
18:17 19.8 °C 13.0 °C 1011.7 hPa WSW 4.8 km/h 8.0 km/h 65 % 0.0 mm
18:22 20.1 °C 13.1 °C 1011.7 hPa SW 4.8 km/h 8.0 km/h 64 % 0.0 mm
18:27 20.2 °C 13.4 °C 1011.7 hPa SSW 1.6 km/h 8.0 km/h 65 % 0.0 mm
18:32 20.4 °C 13.4 °C 1011.7 hPa SW 8.0 km/h 8.0 km/h 64 % 0.0 mm
18:37 20.0 °C 13.0 °C 1012.1 hPa SSW 1.6 km/h 6.4 km/h 64 % 0.0 mm
18:42 20.0 °C 13.0 °C 1011.7 hPa Calm   9.7 km/h 64 % 0.0 mm
18:52 20.3 °C 13.0 °C 1012.1 hPa West 1.6 km/h 6.4 km/h 63 % 0.0 mm
18:57 20.2 °C 12.7 °C 1012.1 hPa West 1.6 km/h 6.4 km/h 62 % 0.0 mm
19:02 20.1 °C 12.8 °C 1012.1 hPa WSW 1.6 km/h 4.8 km/h 63 % 0.0 mm
19:07 20.2 °C 13.2 °C 1012.1 hPa Calm   4.8 km/h 64 % 0.0 mm
19:12 20.7 °C 13.2 °C 1012.4 hPa Calm   4.8 km/h 62 % 0.0 mm
19:17 21.1 °C 13.3 °C 1012.4 hPa Calm   3.2 km/h 61 % 0.0 mm
19:22 21.6 °C 13.5 °C 1012.4 hPa Calm   1.6 km/h 60 % 0.0 mm
19:27 21.2 °C 13.1 °C 1012.4 hPa Calm     60 % 0.0 mm
19:32 20.3 °C 12.8 °C 1012.4 hPa Calm     62 % 0.0 mm
19:37 20.0 °C 13.0 °C 1012.4 hPa Calm     64 % 0.0 mm
19:42 19.7 °C 12.9 °C 1012.4 hPa Calm     65 % 0.0 mm
19:47 19.3 °C 13.0 °C 1012.4 hPa Calm     67 % 0.0 mm
19:52 18.7 °C 13.8 °C 1012.4 hPa West 1.6 km/h 1.6 km/h 73 % 0.0 mm
19:57 18.1 °C 13.8 °C 1012.1 hPa Calm   1.6 km/h 76 % 0.0 mm
20:02 17.8 °C 13.5 °C 1012.1 hPa Calm   1.6 km/h 76 % 0.0 mm
20:12 16.9 °C 13.2 °C 1012.4 hPa Calm     79 % 0.0 mm
20:17 16.8 °C 13.5 °C 1012.4 hPa Calm     81 % 0.0 mm
20:22 16.7 °C 13.4 °C 1012.4 hPa Calm     81 % 0.0 mm
20:32 16.2 °C 13.3 °C 1012.8 hPa Calm     83 % 0.0 mm
20:42 15.7 °C 13.0 °C 1012.8 hPa Calm     84 % 0.0 mm
20:47 15.5 °C 13.0 °C 1013.1 hPa Calm     85 % 0.0 mm
20:52 15.4 °C 13.1 °C 1013.1 hPa Calm   1.6 km/h 86 % 0.0 mm
20:57 15.2 °C 13.0 °C 1013.1 hPa Calm   1.6 km/h 87 % 0.0 mm
21:02 15.2 °C 13.0 °C 1013.1 hPa Calm   1.6 km/h 87 % 0.0 mm
21:07 15.2 °C 13.0 °C 1013.1 hPa Calm   1.6 km/h 87 % 0.0 mm
21:12 15.0 °C 12.9 °C 1013.1 hPa Calm   1.6 km/h 87 % 0.0 mm
21:17 14.8 °C 12.8 °C 1013.1 hPa Calm   1.6 km/h 88 % 0.0 mm
21:22 14.6 °C 12.8 °C 1013.1 hPa Calm   1.6 km/h 89 % 0.0 mm
21:32 14.3 °C 12.7 °C 1013.1 hPa Calm     90 % 0.0 mm
21:37 14.2 °C 12.8 °C 1013.4 hPa Calm     91 % 0.0 mm
21:42 14.1 °C 12.8 °C 1013.4 hPa Calm     92 % 0.0 mm
21:47 14.1 °C 12.8 °C 1013.4 hPa Calm     92 % 0.0 mm
21:52 14.1 °C 13.0 °C 1013.4 hPa Calm     93 % 0.0 mm
21:57 14.1 °C 12.8 °C 1013.4 hPa Calm     92 % 0.0 mm
22:02 14.1 °C 12.8 °C 1013.4 hPa Calm     92 % 0.0 mm
22:12 13.8 °C 12.5 °C 1013.4 hPa Calm     92 % 0.0 mm
22:17 13.6 °C 12.5 °C 1013.4 hPa WNW 3.2 km/h 3.2 km/h 93 % 0.0 mm
22:22 13.6 °C 12.5 °C 1013.4 hPa Calm   3.2 km/h 93 % 0.0 mm
22:27 13.6 °C 12.7 °C 1013.4 hPa NNE 1.6 km/h 3.2 km/h 94 % 0.0 mm
22:32 13.6 °C 12.7 °C 1013.4 hPa Calm   3.2 km/h 94 % 0.0 mm
22:37 13.5 °C 12.4 °C 1013.4 hPa Calm   3.2 km/h 93 % 0.0 mm
22:42 13.4 °C 12.3 °C 1013.8 hPa Calm   3.2 km/h 93 % 0.0 mm
22:47 13.3 °C 12.2 °C 1013.8 hPa Calm   1.6 km/h 93 % 0.0 mm
22:52 13.3 °C 12.4 °C 1013.8 hPa Calm   1.6 km/h 94 % 0.0 mm
22:57 13.2 °C 12.3 °C 1013.8 hPa NW 1.6 km/h 1.6 km/h 94 % 0.0 mm
23:02 13.2 °C 12.3 °C 1013.8 hPa WNW 3.2 km/h 3.2 km/h 94 % 0.0 mm
23:12 13.1 °C 12.2 °C 1013.8 hPa WNW 3.2 km/h 3.2 km/h 94 % 0.0 mm
23:17 13.1 °C 12.3 °C 1013.8 hPa North 3.2 km/h 3.2 km/h 95 % 0.0 mm
23:22 13.2 °C 12.4 °C 1013.8 hPa North 3.2 km/h 3.2 km/h 95 % 0.0 mm
23:27 13.1 °C 12.2 °C 1013.8 hPa NNW 4.8 km/h 4.8 km/h 94 % 0.0 mm
23:32 13.2 °C 12.3 °C 1013.8 hPa Calm   4.8 km/h 94 % 0.0 mm
23:37 13.2 °C 12.3 °C 1013.8 hPa Calm   4.8 km/h 94 % 0.0 mm
23:42 13.2 °C 12.3 °C 1013.8 hPa Calm   4.8 km/h 94 % 0.0 mm
23:52 12.9 °C 12.0 °C 1014.1 hPa Calm   1.6 km/h 94 % 0.0 mm
23:57 12.9 °C 12.0 °C 1014.1 hPa Calm   1.6 km/h 94 % 0.0 mm
Meteo18
Compliments of Weather Underground - 4 mb

Script developed by  Jim McMurry - jmcmurry@mwt.net Adapted for the template by  Wim van der Kuil - Leuven-Template.eu

You find our weather info also at:

European Weather Network

Weather Underground

Equipment we use:

Weather-station
Davis Vue

Weather-program
Meteohub

Weather-server
Raspberry PI 2 B+

Provider
1 and 1

Davis Vue

Meteohub

Raspberry PI 2 B+

1 and 1